Latest Coastal Weather Observations for Kalumburu

IDW60701

Issued at 8:03 pm WST Sunday 25 June 2017 (issued every 10 minutes, with the page automatically refreshed every 10 minutes)

About coastal observations | Map of coastal stations | Coastal observations for WA | Marine services | Other Formats
Station Details ID: 001019 Name: KALUMBURU Lat: -14.30 Lon: 126.65 Height: 23.0 m
Data from the previous 72 hours. | See also: Recent months at Kalumburu
Date/Time
WST
Temp
°C
Wind Pressure Rain since
9am
mm
Weather Cloud Vis
km
Sea
Height
m
Swell
Dir  Spd
kts
Gust
kts
hPa Trend Height
m
Period
s
Dir
25/08:00pm 21.1 WNW 2 4 1013.2 - 0.0 - - - - - - -
25/07:30pm 21.7 NW 3 4 1012.8 - 0.0 - - - - - - -
25/07:00pm 21.8 CALM 0 0 1012.5 - 0.0 - - - - - - -
25/06:30pm 23.5 NW 3 3 1012.2 - 0.0 - - - - - - -
25/06:00pm 24.5 NNW 5 8 1011.9 - 0.0 - - - - - - -
25/05:30pm 25.2 NW 6 8 1011.5 - 0.0 - - - - - - -
25/05:00pm 26.3 NW 3 6 1011.3 - 0.0 - - - - - - -
25/04:30pm 27.3 NNW 7 10 1011.1 - 0.0 - - - - - - -
25/04:00pm 28.0 NNW 8 13 1010.8 - 0.0 - - - - - - -
25/03:30pm 28.7 NNW 9 14 1010.7 - 0.0 - - - - - - -
25/03:00pm 29.8 NNW 9 12 1010.7 - 0.0 - - - - - - -
25/02:30pm 30.9 NNW 9 15 1010.7 - 0.0 - - - - - - -
25/02:00pm 31.9 NNE 6 13 1010.9 - 0.0 - - - - - - -
25/01:30pm 33.1 ENE 7 13 1010.9 - 0.0 - - - - - - -
25/01:00pm 32.4 ESE 8 13 1011.2 - 0.0 - - - - - - -
25/12:30pm 33.3 NE 6 11 1011.6 - 0.0 - - - - - - -
25/12:00pm 33.0 ENE 6 9 1012.2 - 0.0 - - - - - - -
25/11:30am 32.4 E 7 14 1012.6 - 0.0 - - - - - - -
25/11:00am 31.9 E 7 11 1013.2 - 0.0 - - - - - - -
25/10:30am 31.4 ENE 6 10 1013.7 - 0.0 - - - - - - -
25/10:00am 30.5 ESE 6 10 1014.0 - 0.0 - - - - - - -
25/09:30am 28.4 SSW 5 7 1014.2 - 0.0 - - - - - - -
25/09:00am 27.2 S 5 7 1014.4 - 0.0 - - - - - - -
25/08:30am 25.2 S 4 5 1014.5 - 0.0 - - - - - - -
25/08:00am 23.4 S 3 5 1014.4 - 0.0 - - - - - - -
25/07:30am 21.4 SSW 3 4 1014.4 - 0.0 - - - - - - -
25/07:00am 19.2 CALM 0 0 1013.9 - 0.0 - - - - - - -
25/06:30am 16.6 CALM 0 0 1013.6 - 0.0 - - - - - - -
25/06:00am 16.2 CALM 0 0 1013.2 - 0.0 - - - - - - -
25/05:30am 16.4 CALM 0 0 1012.8 - 0.0 - - - - - - -
25/05:00am 16.7 CALM 0 0 1012.6 - 0.0 - - - - - - -
25/04:30am 16.5 CALM 0 0 1012.4 - 0.0 - - - - - - -
25/04:00am 17.1 CALM 0 0 1012.4 - 0.0 - - - - - - -
25/03:30am 16.8 CALM 0 0 1012.4 - 0.0 - - - - - - -
25/03:00am 17.1 CALM 0 0 1012.5 - 0.0 - - - - - - -
25/02:30am 17.3 CALM 0 0 1012.5 - 0.0 - - - - - - -
25/02:00am 17.3 CALM 0 0 1012.5 - 0.0 - - - - - - -
25/01:30am 17.7 CALM 0 0 1012.6 - 0.0 - - - - - - -
25/01:00am 17.9 CALM 0 0 1012.6 - 0.0 - - - - - - -
25/12:30am 17.7 CALM 0 0 1012.9 - 0.0 - - - - - - -
25/12:00am 18.2 ENE 1 3 1013.0 - 0.0 - - - - - - -
 
Date/Time
WST
Temp
°C
Wind Pressure Rain since
9am
mm
Weather Cloud Vis
km
Sea
Height
m
Swell
Dir  Spd
kts
Gust
kts
hPa Trend Height
m
Period
s
Dir
24/11:30pm 18.3 CALM 0 0 1012.9 - 0.0 - - - - - - -
24/11:00pm 19.4 N 2 3 1013.0 - 0.0 - - - - - - -
24/10:30pm 19.2 CALM 0 0 1013.1 - 0.0 - - - - - - -
24/10:00pm 19.6 CALM 0 0 1013.3 - 0.0 - - - - - - -
24/09:30pm 20.4 CALM 0 0 1013.3 - 0.0 - - - - - - -
24/09:00pm 21.1 CALM 0 3 1013.1 - 0.0 - - - - - - -
24/08:30pm 22.1 CALM 0 0 1012.9 - 0.0 - - - - - - -
24/08:00pm 23.6 N 3 4 1012.5 - 0.0 - - - - - - -
24/07:30pm 24.4 NNW 3 5 1012.1 - 0.0 - - - - - - -
24/07:00pm 24.9 NNE 4 6 1011.7 - 0.0 - - - - - - -
24/06:30pm 25.6 N 5 8 1011.3 - 0.0 - - - - - - -
24/06:00pm 25.4 N 4 6 1010.9 - 0.0 - - - - - - -
24/05:30pm 26.2 N 6 9 1010.7 - 0.0 - - - - - - -
24/05:00pm 27.4 NNW 9 14 1010.5 - 0.0 - - - - - - -
24/04:30pm 28.4 NNW 8 12 1010.0 - 0.0 - - - - - - -
24/04:00pm 29.0 NNW 9 13 1009.6 - 0.0 - - - - - - -
24/03:30pm 29.7 NW 9 14 1009.4 - 0.0 - - - - - - -
24/03:00pm 30.6 N 9 14 1009.4 - 0.0 - - - - - - -
24/02:30pm 31.1 NNW 9 13 1009.5 - 0.0 - - - - - - -
24/02:00pm 31.6 NNW 9 14 1009.7 - 0.0 - - - - - - -
24/01:30pm 32.2 NNW 9 15 1009.8 - 0.0 - - - - - - -
24/01:00pm 32.5 NNW 8 12 1010.4 - 0.0 - - - - - - -
24/12:30pm 33.6 NE 6 13 1010.8 - 0.0 - - - - - - -
24/12:00pm 32.8 NE 8 11 1011.3 - 0.0 - - - - - - -
24/11:30am 32.8 NE 8 13 1012.0 - 0.0 - - - - - - -
24/11:00am 32.7 ENE 7 11 1012.4 - 0.0 - - - - - - -
24/10:30am 32.7 NE 7 11 1012.7 - 0.0 - - - - - - -
24/10:00am 31.9 ENE 5 9 1013.2 - 0.0 - - - - - - -
24/09:30am 29.3 SSW 3 5 1013.5 - 0.0 - - - - - - -
24/09:00am 27.1 SSW 5 6 1013.8 - 0.0 - - - - - - -
24/08:30am 25.2 SSW 4 5 1013.8 - 0.0 - - - - - - -
24/08:00am 23.4 SSW 3 4 1013.7 - 0.0 - - - - - - -
24/07:30am 21.1 S 4 5 1013.6 - 0.0 - - - - - - -
24/07:00am 19.2 SSW 3 4 1013.3 - 0.0 - - - - - - -
24/06:30am 15.5 SSW 1 5 1012.8 - 0.0 - - - - - - -
24/06:00am 15.1 CALM 0 0 1012.4 - 0.0 - - - - - - -
24/05:30am 15.1 CALM 0 0 1012.1 - 0.0 - - - - - - -
24/05:00am 15.5 CALM 0 0 1011.9 - 0.0 - - - - - - -
24/04:30am 15.9 CALM 0 3 1012.1 - 0.0 - - - - - - -
24/04:00am 15.7 SSE 4 5 1012.0 - 0.0 - - - - - - -
24/03:30am 15.5 SSE 3 5 1012.1 - 0.0 - - - - - - -
24/03:00am 15.8 S 4 4 1012.2 - 0.0 - - - - - - -
24/02:30am 16.8 CALM 0 0 1012.1 - 0.0 - - - - - - -
24/02:00am 16.5 CALM 0 0 1012.3 - 0.0 - - - - - - -
24/01:30am 16.3 CALM 0 0 1012.6 - 0.0 - - - - - - -
24/01:00am 16.6 CALM 0 0 1012.7 - 0.0 - - - - - - -
24/12:30am 16.7 CALM 0 0 1013.0 - 0.0 - - - - - - -
24/12:00am 17.1 CALM 0 0 1013.1 - 0.0 - - - - - - -
 
Date/Time
WST
Temp
°C
Wind Pressure Rain since
9am
mm
Weather Cloud Vis
km
Sea
Height
m
Swell
Dir  Spd
kts
Gust
kts
hPa Trend Height
m
Period
s
Dir
23/11:30pm 17.6 CALM 0 0 1013.3 - 0.0 - - - - - - -
23/11:00pm 17.7 CALM 0 0 1013.4 - 0.0 - - - - - - -
23/10:30pm 18.2 CALM 0 0 1013.6 - 0.0 - - - - - - -
23/10:00pm 18.5 CALM 0 0 1013.7 - 0.0 - - - - - - -
23/09:30pm 18.8 CALM 0 0 1013.6 - 0.0 - - - - - - -
23/09:00pm 19.3 CALM 0 0 1013.5 - 0.0 - - - - - - -
23/08:30pm 20.0 CALM 0 0 1013.4 - 0.0 - - - - - - -
23/08:00pm 20.2 CALM 0 0 1013.1 - 0.0 - - - - - - -
23/07:30pm 20.6 CALM 0 0 1012.9 - 0.0 - - - - - - -
23/07:00pm 21.3 CALM 0 0 1012.6 - 0.0 - - - - - - -
23/06:30pm 23.2 N 4 4 1012.2 - 0.0 - - - - - - -
23/06:00pm 24.0 N 1 4 1011.8 - 0.0 - - - - - - -
23/05:30pm 25.2 NNW 5 7 1011.5 - 0.0 - - - - - - -
23/05:00pm 26.5 NNW 6 8 1011.4 - 0.0 - - - - - - -
23/04:30pm 29.4 N 6 8 1011.0 - 0.0 - - - - - - -
23/04:00pm 29.9 N 8 12 1010.7 - 0.0 - - - - - - -
23/03:30pm 30.4 N 12 16 1010.5 - 0.0 - - - - - - -
23/03:00pm 33.5 NE 6 9 1010.5 - 0.0 - - - - - - -
23/02:30pm 33.3 NE 5 7 1010.6 - 0.0 - - - - - - -
23/02:00pm 33.5 E 6 8 1010.8 - 0.0 - - - - - - -
23/01:30pm 33.4 SSE 4 8 1011.2 - 0.0 - - - - - - -
23/01:00pm 33.3 ESE 6 11 1011.7 - 0.0 - - - - - - -
23/12:30pm 32.6 SE 7 10 1012.3 - 0.0 - - - - - - -
23/12:00pm 33.1 ESE 6 10 1012.8 - 0.0 - - - - - - -
23/11:30am 32.2 SSE 5 11 1013.4 - 0.0 - - - - - - -
23/11:00am 30.4 SE 5 8 1014.1 - 0.0 - - - - - - -
23/10:30am 30.2 SSW 6 10 1014.6 - 0.0 - - - - - - -
23/10:00am 29.0 SSW 6 8 1015.1 - 0.0 - - - - - - -
23/09:30am 28.0 SSW 4 7 1015.4 - 0.0 - - - - - - -
23/09:00am 25.8 SSW 4 6 1015.6 - 0.0 - - - - - - -
23/08:30am 24.2 S 4 6 1015.7 - 0.0 - - - - - - -
23/08:00am 22.6 S 4 6 1015.6 - 0.0 - - - - - - -
23/07:30am 21.2 S 5 6 1015.2 - 0.0 - - - - - - -
23/07:00am 19.2 SSW 4 6 1014.8 - 0.0 - - - - - - -
23/06:30am 16.8 S 3 5 1014.5 - 0.0 - - - - - - -
23/06:00am 17.9 S 4 7 1014.2 - 0.0 - - - - - - -
23/05:30am 17.0 S 5 7 1014.0 - 0.0 - - - - - - -
23/05:00am 14.7 CALM 0 3 1013.7 - 0.0 - - - - - - -
23/04:30am 15.0 CALM 0 0 1013.6 - 0.0 - - - - - - -
23/04:00am 14.6 CALM 0 0 1013.7 - 0.0 - - - - - - -
23/03:30am 14.6 CALM 0 2 1013.9 - 0.0 - - - - - - -
23/03:00am 15.1 SE 3 5 1013.9 - 0.0 - - - - - - -
23/02:30am 15.1 CALM 0 0 1014.0 - 0.0 - - - - - - -
23/02:00am 15.9 S 2 5 1014.1 - 0.0 - - - - - - -
23/01:30am 15.3 CALM 0 0 1014.3 - 0.0 - - - - - - -
23/01:00am 15.9 CALM 0 0 1014.6 - 0.0 - - - - - - -
23/12:30am 16.5 CALM 0 0 1014.8 - 0.0 - - - - - - -
23/12:00am 16.1 CALM 0 3 1015.1 - 0.0 - - - - - - -
 
Date/Time
WST
Temp
°C
Wind Pressure Rain since
9am
mm
Weather Cloud Vis
km
Sea
Height
m
Swell
Dir  Spd
kts
Gust
kts
hPa Trend Height
m
Period
s
Dir
22/11:30pm 16.7 CALM 0 0 1015.2 - 0.0 - - - - - - -
22/11:00pm 17.5 CALM 0 0 1015.4 - 0.0 - - - - - - -
22/10:30pm 17.7 SSW 1 5 1015.6 - 0.0 - - - - - - -
22/10:00pm 18.6 CALM 0 0 1015.6 - 0.0 - - - - - - -
22/09:30pm 19.9 CALM 0 0 1015.6 - 0.0 - - - - - - -
22/09:00pm 20.8 NNW 3 4 1015.6 - 0.0 - - - - - - -
22/08:30pm 21.2 CALM 0 3 1015.5 - 0.0 - - - - - - -

Other Formats:

Comma delimited format used in spreadsheet applications
http://www.bom.gov.au/fwo/IDW60701/IDW60701.94100.axf

JavaScript Object Notation format (JSON) in row-major order
http://www.bom.gov.au/fwo/IDW60701/IDW60701.94100.json